Time;durP1;ratioP1;P1;durP2;ratioP2;P2;SDS_P1;SDS_P2;PMS_P1;PMS_P2;Temp;Humidity;BMP_temperature;BMP_pressure;BME280_temperature;BME280_humidity;BME280_pressure;Samples;Min_cycle;Max_cycle;Signal;HPM_P1;HPM_P2
2023/03/25 00:00:16;;;;;;;3.10;1.50;;;;;;;8.80;100.00;97803.84;4185300;28;20295;-49
2023/03/25 00:02:19;;;;;;;3.78;1.17;;;;;;;8.76;100.00;97808.19;4171192;28;20261;-49
2023/03/25 00:04:21;;;;;;;3.15;1.38;;;;;;;8.77;100.00;97798.91;4169724;28;20269;-50
2023/03/25 00:06:22;;;;;;;9.98;1.75;;;;;;;8.80;100.00;97820.22;4204941;28;20203;-48
2023/03/25 00:08:25;;;;;;;4.68;1.25;;;;;;;8.68;100.00;97825.81;4168800;28;20236;-50
2023/03/25 00:10:27;;;;;;;2.80;1.63;;;;;;;8.77;100.00;97820.72;4169140;28;20247;-49
2023/03/25 00:12:29;;;;;;;2.00;1.80;;;;;;;8.76;100.00;97821.81;4172235;28;20216;-49
2023/03/25 00:14:31;;;;;;;1.25;1.15;;;;;;;8.83;100.00;97825.16;4155671;28;20233;-49
2023/03/25 00:16:33;;;;;;;4.07;1.33;;;;;;;8.68;100.00;97823.09;4199404;28;20242;-49
2023/03/25 00:18:36;;;;;;;2.50;1.30;;;;;;;8.68;100.00;97823.09;4168808;28;20204;-49
2023/03/25 00:20:44;;;;;;;5.35;1.10;;;;;;;8.65;100.00;97820.88;4199950;28;20207;-49
2023/03/25 00:22:46;;;;;;;2.30;1.30;;;;;;;8.64;100.00;97815.66;4168641;28;20826;-50
2023/03/25 00:24:48;;;;;;;1.98;1.20;;;;;;;8.60;100.00;97818.09;4175277;28;20697;-49
2023/03/25 00:26:50;;;;;;;7.10;1.50;;;;;;;8.54;100.00;97821.00;4174165;28;20208;-49
2023/03/25 00:28:51;;;;;;;3.60;1.33;;;;;;;8.62;100.00;97806.94;4169830;28;20239;-50
2023/03/25 00:30:53;;;;;;;4.18;1.27;;;;;;;8.54;100.00;97810.91;4166737;28;20243;-49
2023/03/25 00:32:56;;;;;;;1.70;0.90;;;;;;;8.71;100.00;97810.84;4184287;28;20246;-50
2023/03/25 00:34:58;;;;;;;6.32;1.33;;;;;;;8.77;100.00;97812.56;4172067;28;21077;-50
2023/03/25 00:37:03;;;;;;;1.98;1.23;;;;;;;8.68;100.00;97811.38;4155349;28;20295;-49
2023/03/25 00:39:05;;;;;;;1.15;1.05;;;;;;;8.78;100.00;97803.28;4166956;28;20649;-50
2023/03/25 00:41:21;;;;;;;3.95;1.35;;;;;;;8.70;100.00;97806.47;4168352;28;20196;-49
2023/03/25 00:43:23;;;;;;;3.38;1.40;;;;;;;8.62;100.00;97806.94;4169817;28;20704;-49
2023/03/25 00:45:26;;;;;;;2.20;1.10;;;;;;;8.64;100.00;97810.22;4186699;28;20220;-49
2023/03/25 00:47:28;;;;;;;1.65;1.08;;;;;;;8.57;100.00;97809.59;4167236;28;20299;-49
2023/03/25 00:49:29;;;;;;;2.38;1.25;;;;;;;8.57;100.00;97815.03;4169389;28;20212;-49
2023/03/25 00:51:32;;;;;;;3.83;1.50;;;;;;;8.48;100.00;97811.13;4169125;28;20288;-49
2023/03/25 00:53:37;;;;;;;2.58;1.65;;;;;;;8.54;100.00;97810.09;4173078;28;20246;-48
2023/03/25 00:55:40;;;;;;;1.90;1.20;;;;;;;8.50;100.00;97815.22;4199930;28;20310;-49
2023/03/25 00:57:42;;;;;;;2.78;1.27;;;;;;;8.57;100.00;97809.59;4170795;28;20793;-50
2023/03/25 00:59:43;;;;;;;2.10;1.20;;;;;;;8.52;100.00;97817.69;4203759;28;20228;-51
2023/03/25 01:01:45;;;;;;;2.40;1.23;;;;;;;8.39;100.00;97823.53;4168601;28;20778;-50
2023/03/25 01:03:47;;;;;;;1.10;1.00;;;;;;;8.28;100.00;97824.50;4189721;28;20235;-50
2023/03/25 01:05:53;;;;;;;3.63;1.42;;;;;;;8.26;100.00;97838.38;4189261;28;20246;-48
2023/03/25 01:07:55;;;;;;;2.33;1.27;;;;;;;8.30;100.00;97828.59;4176214;28;20768;-49
2023/03/25 01:09:57;;;;;;;2.25;1.30;;;;;;;8.16;100.00;97830.00;4169115;28;20251;-49
2023/03/25 01:11:59;;;;;;;2.15;1.08;;;;;;;8.06;100.00;97834.47;4167900;28;20563;-49
2023/03/25 01:14:02;;;;;;;3.38;1.30;;;;;;;8.01;100.00;97853.50;4168574;28;20255;-49
2023/03/25 01:16:06;;;;;;;1.60;0.80;;;;;;;7.91;100.00;97831.53;4168489;28;20228;-49
2023/03/25 01:18:08;;;;;;;2.20;1.25;;;;;;;7.87;100.00;97830.38;4168512;28;20213;-50
2023/03/25 01:20:10;;;;;;;2.65;0.95;;;;;;;7.78;100.00;97824.56;4172925;28;20242;-49
2023/03/25 01:22:11;;;;;;;2.75;1.25;;;;;;;7.84;100.00;97803.66;4160037;28;20291;-50
2023/03/25 01:24:14;;;;;;;1.08;0.95;;;;;;;7.72;100.00;97800.22;4166971;28;20314;-50
2023/03/25 01:26:16;;;;;;;1.70;1.00;;;;;;;7.77;100.00;97792.13;4174639;28;20212;-49
2023/03/25 01:28:19;;;;;;;1.38;1.27;;;;;;;7.85;100.00;97808.88;4172828;28;20238;-49
2023/03/25 01:30:21;;;;;;;0.90;0.80;;;;;;;7.71;100.00;97804.84;4167074;28;20741;-50
2023/03/25 01:32:22;;;;;;;1.52;1.20;;;;;;;7.70;100.00;97813.25;4184094;28;21240;-49
2023/03/25 01:34:24;;;;;;;2.03;1.00;;;;;;;7.60;100.00;97807.63;4198070;28;20261;-51
2023/03/25 01:36:29;;;;;;;3.00;1.58;;;;;;;7.57;100.00;97816.31;4167819;28;20275;-50
2023/03/25 01:38:33;;;;;;;1.35;1.10;;;;;;;7.68;100.00;97809.97;4171402;28;20294;-50
2023/03/25 01:40:34;;;;;;;1.95;0.98;;;;;;;7.62;100.00;97813.69;4168961;28;20207;-51
2023/03/25 01:42:36;;;;;;;0.85;0.85;;;;;;;7.53;100.00;97817.88;4159006;28;20239;-49
2023/03/25 01:44:38;;;;;;;0.90;0.90;;;;;;;7.64;100.00;97814.25;4166742;28;20634;-49
2023/03/25 01:46:44;;;;;;;0.88;0.88;;;;;;;7.53;100.00;97801.53;4167797;28;20242;-50
2023/03/25 01:48:48;;;;;;;0.98;0.88;;;;;;;7.37;100.00;97807.81;4175885;28;20240;-49
2023/03/25 01:50:54;;;;;;;2.92;0.70;;;;;;;7.50;100.00;97807.50;4171701;28;20313;-50
2023/03/25 01:52:57;;;;;;;0.93;0.93;;;;;;;7.41;100.00;97804.34;4175240;28;20295;-50
2023/03/25 01:54:59;;;;;;;1.52;0.93;;;;;;;7.36;100.00;97798.81;4175844;28;20274;-50
2023/03/25 01:57:01;;;;;;;2.10;0.95;;;;;;;7.33;100.00;97804.78;4173482;28;20211;-50
2023/03/25 01:59:05;;;;;;;0.90;0.90;;;;;;;7.36;100.00;97800.72;4157690;28;20312;-49
2023/03/25 02:01:12;;;;;;;1.15;1.05;;;;;;;7.26;100.00;97800.53;4172480;28;20231;-50
2023/03/25 02:03:16;;;;;;;1.15;1.13;;;;;;;7.37;100.00;97808.63;4172285;28;20215;-51
2023/03/25 02:05:21;;;;;;;1.02;1.02;;;;;;;7.29;100.00;97810.97;4173462;28;20337;-50
2023/03/25 02:07:29;;;;;;;1.30;1.20;;;;;;;7.31;100.00;97825.13;4171151;28;20291;-50
2023/03/25 02:09:31;;;;;;;1.52;1.10;;;;;;;7.22;100.00;97826.63;4170208;28;20611;-49
2023/03/25 02:11:33;;;;;;;1.00;1.00;;;;;;;7.25;100.00;97802.47;4170155;28;20291;-50
2023/03/25 02:13:37;;;;;;;0.90;0.90;;;;;;;7.17;100.00;97807.47;4178185;28;20291;-50
2023/03/25 02:16:17;;;;;;;1.00;1.00;;;;;;;7.33;100.00;97801.22;4173993;28;20216;-49
2023/03/25 02:18:43;;;;;;;2.35;0.98;;;;;;;7.32;100.00;97805.84;4136043;28;20589;-50
2023/03/25 02:21:12;;;;;;;2.35;1.20;;;;;;;7.31;100.00;97798.75;4177784;28;20261;-50
2023/03/25 02:23:29;;;;;;;2.00;1.10;;;;;;;7.33;100.00;97798.50;4169936;28;20285;-51
2023/03/25 02:26:07;;;;;;;1.27;1.20;;;;;;;7.33;100.00;97801.22;4170777;28;20651;-50
2023/03/25 02:28:24;;;;;;;1.58;0.80;;;;;;;7.44;100.00;97797.59;4170091;28;20216;-49
2023/03/25 02:30:50;;;;;;;1.10;1.00;;;;;;;7.43;100.00;97812.28;4174671;28;20207;-49
2023/03/25 02:33:16;;;;;;;1.42;1.30;;;;;;;7.44;100.00;97808.47;4168907;28;20742;-50
2023/03/25 02:35:27;;;;;;;1.35;1.00;;;;;;;7.45;100.00;97804.69;4170323;28;20746;-49
2023/03/25 02:37:48;;;;;;;1.33;1.17;;;;;;;7.48;100.00;97801.47;4169077;28;20204;-50
2023/03/25 02:39:54;;;;;;;1.13;1.02;;;;;;;7.47;100.00;97799.81;4168551;28;20287;-49
2023/03/25 02:42:19;;;;;;;2.40;1.13;;;;;;;7.46;100.00;97806.31;4169615;28;20219;-49
2023/03/25 02:44:36;;;;;;;0.90;0.90;;;;;;;7.45;100.00;97810.13;4170761;28;20219;-49
2023/03/25 02:46:40;;;;;;;2.67;1.10;;;;;;;7.41;100.00;97796.19;4169153;28;20258;-50
2023/03/25 02:48:55;;;;;;;1.98;1.13;;;;;;;7.44;100.00;97792.16;4171757;28;20300;-49
2023/03/25 02:50:59;;;;;;;1.88;1.15;;;;;;;7.39;100.00;97794.78;4171641;28;20307;-50
2023/03/25 02:53:05;;;;;;;1.30;1.30;;;;;;;7.37;100.00;97777.88;4172565;28;20243;-50
2023/03/25 02:55:10;;;;;;;2.22;1.30;;;;;;;7.35;100.00;97778.13;4205084;28;20783;-49
2023/03/25 02:57:14;;;;;;;1.98;1.10;;;;;;;7.36;100.00;97778.97;4168580;28;20675;-49
2023/03/25 02:59:17;;;;;;;1.48;1.40;;;;;;;7.42;100.00;97777.97;4158623;28;20209;-49
2023/03/25 03:01:21;;;;;;;1.42;1.33;;;;;;;7.43;100.00;97774.19;4170506;28;20228;-50
2023/03/25 03:03:25;;;;;;;2.67;1.30;;;;;;;7.40;100.00;97763.78;4204249;28;20658;-50
2023/03/25 03:05:30;;;;;;;2.38;1.20;;;;;;;7.42;100.00;97767.09;4171100;28;21230;-49
2023/03/25 03:07:35;;;;;;;1.65;1.17;;;;;;;7.50;100.00;97770.19;4166667;28;20654;-50
2023/03/25 03:09:41;;;;;;;4.32;1.42;;;;;;;7.37;100.00;97758.84;4177375;28;20212;-49
2023/03/25 03:12:04;;;;;;;3.42;1.52;;;;;;;7.42;100.00;97761.66;4188399;28;20305;-49
2023/03/25 03:14:29;;;;;;;1.95;1.15;;;;;;;7.23;100.00;97768.41;4167989;28;20258;-48
2023/03/25 03:17:07;;;;;;;1.80;1.30;;;;;;;7.36;100.00;97768.88;4172567;28;20255;-49
2023/03/25 03:19:30;;;;;;;1.25;1.13;;;;;;;7.34;100.00;97759.31;4173600;28;20197;-49
2023/03/25 03:21:52;;;;;;;2.10;1.23;;;;;;;7.36;100.00;97768.88;4167768;28;20214;-49
2023/03/25 03:23:59;;;;;;;1.10;1.00;;;;;;;7.42;100.00;97767.09;4201303;28;20231;-49
2023/03/25 03:26:37;;;;;;;1.75;1.25;;;;;;;7.39;100.00;97762.13;4186749;28;20210;-48
2023/03/25 03:28:44;;;;;;;6.32;1.63;;;;;;;7.37;100.00;97764.28;4168575;28;20299;-50
2023/03/25 03:30:48;;;;;;;1.63;1.42;;;;;;;7.35;100.00;97761.78;4168059;28;20235;-50
2023/03/25 03:32:52;;;;;;;2.55;1.20;;;;;;;7.36;100.00;97763.44;4174310;28;20208;-49
2023/03/25 03:34:58;;;;;;;3.17;1.02;;;;;;;7.43;100.00;97768.72;4170890;28;20726;-50
2023/03/25 03:37:01;;;;;;;1.60;0.90;;;;;;;7.34;100.00;97759.31;4191005;28;20746;-50
2023/03/25 03:39:31;;;;;;;1.20;1.10;;;;;;;7.42;100.00;97783.41;4168334;28;20261;-49
2023/03/25 03:41:35;;;;;;;2.58;1.35;;;;;;;7.37;100.00;97772.44;4173695;28;20212;-49
2023/03/25 03:44:01;;;;;;;2.15;1.00;;;;;;;7.26;100.00;97771.47;4155184;28;20251;-49
2023/03/25 03:46:12;;;;;;;3.42;1.20;;;;;;;7.26;100.00;97774.19;4171240;28;20205;-49
2023/03/25 03:48:41;;;;;;;4.07;1.63;;;;;;;7.18;100.00;97763.72;4169955;28;20209;-48
2023/03/25 03:50:50;;;;;;;2.10;1.23;;;;;;;7.23;100.00;97782.00;4171093;28;20856;-49
2023/03/25 03:52:54;;;;;;;2.10;1.33;;;;;;;7.17;100.00;97783.00;4171308;28;20315;-50
2023/03/25 03:55:03;;;;;;;3.47;1.30;;;;;;;7.25;100.00;97783.41;4170569;28;20239;-49
2023/03/25 03:57:10;;;;;;;2.60;1.23;;;;;;;7.27;100.00;97781.25;4187504;28;20314;-49
2023/03/25 03:59:18;;;;;;;4.72;1.60;;;;;;;7.32;100.00;97794.13;4176120;28;20214;-50
2023/03/25 04:01:44;;;;;;;1.42;1.33;;;;;;;7.31;100.00;97787.03;4185625;28;20287;-50
2023/03/25 04:03:51;;;;;;;1.45;1.35;;;;;;;7.24;100.00;97780.94;4169816;28;20212;-49
2023/03/25 04:06:08;;;;;;;1.58;1.38;;;;;;;7.19;100.00;97792.56;4169284;28;20196;-50
2023/03/25 04:08:15;;;;;;;1.67;1.58;;;;;;;7.13;100.00;97792.72;4170510;28;20297;-49
2023/03/25 04:10:20;;;;;;;3.13;1.67;;;;;;;7.20;100.00;97790.66;4201593;28;20246;-49
2023/03/25 04:12:34;;;;;;;4.88;1.58;;;;;;;7.19;100.00;97791.72;4173482;28;20204;-50
2023/03/25 04:14:36;;;;;;;4.05;2.22;;;;;;;7.27;100.00;97796.75;4159560;28;20589;-50
2023/03/25 04:16:38;;;;;;;5.13;2.00;;;;;;;7.20;100.00;97796.09;4172346;28;20277;-49
2023/03/25 04:18:42;;;;;;;4.05;1.85;;;;;;;7.21;100.00;97808.66;4158444;28;20743;-49
2023/03/25 04:20:48;;;;;;;2.13;1.70;;;;;;;7.24;100.00;97802.69;4169076;28;20305;-50
2023/03/25 04:22:51;;;;;;;1.77;1.67;;;;;;;7.28;100.00;97803.88;4154948;28;20718;-49
2023/03/25 04:24:54;;;;;;;2.13;1.65;;;;;;;7.24;100.00;97813.59;4172270;28;20319;-50
2023/03/25 04:27:03;;;;;;;1.90;1.73;;;;;;;7.17;100.00;97807.47;4155161;28;20197;-49
2023/03/25 04:29:04;;;;;;;5.50;1.65;;;;;;;7.18;100.00;97809.13;4171294;28;20238;-49
2023/03/25 04:31:14;;;;;;;4.50;1.58;;;;;;;7.16;100.00;97803.13;4201167;28;22176;-49
2023/03/25 04:33:16;;;;;;;1.92;1.33;;;;;;;7.14;100.00;97803.34;4169281;28;20270;-49
2023/03/25 04:35:18;;;;;;;1.23;1.10;;;;;;;7.12;100.00;97815.53;4167683;28;20230;-49
2023/03/25 04:37:21;;;;;;;1.90;1.35;;;;;;;7.15;100.00;97802.28;4167567;28;20221;-49
2023/03/25 04:39:22;;;;;;;1.48;1.15;;;;;;;7.17;100.00;97808.28;4156913;28;20670;-49
2023/03/25 04:41:24;;;;;;;2.03;1.17;;;;;;;7.21;100.00;97793.13;4167821;28;20199;-49
2023/03/25 04:43:27;;;;;;;4.45;1.10;;;;;;;7.22;100.00;97805.66;4186092;28;20240;-49
2023/03/25 04:45:29;;;;;;;1.42;1.10;;;;;;;7.19;100.00;97805.31;4168747;28;20342;-49
2023/03/25 04:47:31;;;;;;;3.13;1.77;;;;;;;7.12;100.00;97799.22;4174922;28;20577;-50
2023/03/25 04:49:33;;;;;;;2.75;1.35;;;;;;;7.17;100.00;97805.56;4172440;28;20290;-50
2023/03/25 04:51:34;;;;;;;2.55;1.27;;;;;;;7.25;100.00;97799.75;4151811;28;20300;-49
2023/03/25 04:53:37;;;;;;;2.42;1.45;;;;;;;7.21;100.00;97797.75;4168303;28;20255;-49
2023/03/25 04:55:46;;;;;;;7.90;1.58;;;;;;;7.24;100.00;97808.16;4168992;28;20300;-49
2023/03/25 04:57:50;;;;;;;2.75;1.50;;;;;;;7.21;100.00;97808.66;4167252;28;20201;-49
2023/03/25 04:59:52;;;;;;;5.97;1.92;;;;;;;7.21;100.00;97814.09;4167871;28;20216;-50
2023/03/25 05:01:54;;;;;;;3.58;1.40;;;;;;;7.22;100.00;97800.22;4174576;28;20243;-49
2023/03/25 05:04:03;;;;;;;2.78;1.35;;;;;;;7.22;100.00;97805.66;4174072;28;20658;-50
2023/03/25 05:06:10;;;;;;;4.82;1.50;;;;;;;7.22;100.00;97810.28;4167304;28;20215;-51
2023/03/25 05:08:13;;;;;;;6.85;2.05;;;;;;;7.23;100.00;97806.50;4168444;28;20246;-49
2023/03/25 05:10:16;;;;;;;5.18;1.98;;;;;;;7.26;100.00;97801.38;4192803;28;20250;-50
2023/03/25 05:12:18;;;;;;;4.93;1.52;;;;;;;7.25;100.00;97805.19;4168215;28;20232;-50
2023/03/25 05:14:20;;;;;;;7.78;1.67;;;;;;;7.27;100.00;97797.59;4167480;28;20224;-49
2023/03/25 05:16:22;;;;;;;7.18;1.67;;;;;;;7.34;100.00;97802.84;4184842;28;20224;-49
2023/03/25 05:18:24;;;;;;;3.63;2.08;;;;;;;7.29;100.00;97800.06;4152741;28;20240;-49
2023/03/25 05:20:26;;;;;;;6.65;1.67;;;;;;;7.29;100.00;97810.97;4165564;28;20287;-50
2023/03/25 05:22:28;;;;;;;3.40;1.42;;;;;;;7.26;100.00;97812.28;4168292;28;20211;-49
2023/03/25 05:24:29;;;;;;;4.03;1.40;;;;;;;7.27;100.00;97796.75;4171985;28;20706;-49
2023/03/25 05:26:33;;;;;;;4.07;1.73;;;;;;;7.25;100.00;97805.19;4155844;28;20213;-48
2023/03/25 05:28:35;;;;;;;5.07;2.03;;;;;;;7.26;100.00;97811.44;4204931;28;20214;-49
2023/03/25 05:30:41;;;;;;;16.98;4.88;;;;;;;7.30;100.00;97818.03;4171149;28;20292;-48
2023/03/25 05:32:44;;;;;;;4.45;2.17;;;;;;;7.25;100.00;97837.84;4171631;28;20224;-51
2023/03/25 05:34:46;;;;;;;4.25;2.03;;;;;;;7.30;100.00;97842.53;4169331;28;20247;-50
2023/03/25 05:36:48;;;;;;;10.25;2.08;;;;;;;7.27;100.00;97835.69;4168902;28;20800;-49
2023/03/25 05:38:53;;;;;;;10.32;2.55;;;;;;;7.29;100.00;97843.59;4175844;28;20901;-49
2023/03/25 05:40:55;;;;;;;7.18;2.85;;;;;;;7.33;100.00;97847.47;4170518;28;20577;-49
2023/03/25 05:42:57;;;;;;;6.35;2.72;;;;;;;7.36;100.00;97838.84;4187895;28;20200;-49
2023/03/25 05:45:00;;;;;;;4.97;3.20;;;;;;;7.36;100.00;97836.09;4188476;28;20227;-49
2023/03/25 05:47:02;;;;;;;9.13;1.70;;;;;;;7.38;100.00;97850.28;4176092;28;20262;-49
2023/03/25 05:49:04;;;;;;;9.38;1.65;;;;;;;7.43;100.00;97844.94;4162701;28;20633;-49
2023/03/25 05:51:12;;;;;;;3.22;2.17;;;;;;;7.43;100.00;97851.19;4157804;28;20208;-49
2023/03/25 05:53:16;;;;;;;12.48;2.33;;;;;;;7.49;100.00;97865.72;4171819;28;20231;-52
2023/03/25 05:55:20;;;;;;;9.57;2.13;;;;;;;7.45;100.00;97859.94;4202144;28;20314;-50
2023/03/25 05:57:22;;;;;;;11.02;2.50;;;;;;;7.46;100.00;97855.31;4169172;28;20260;-49
2023/03/25 05:59:24;;;;;;;11.25;1.83;;;;;;;7.49;100.00;97865.72;4170096;28;22025;-50
2023/03/25 06:01:26;;;;;;;4.90;1.65;;;;;;;7.51;100.00;97858.13;4171598;28;20470;-50
2023/03/25 06:03:34;;;;;;;4.60;2.10;;;;;;;7.57;100.00;97868.03;4201839;28;21093;-49
2023/03/25 06:05:40;;;;;;;5.78;2.30;;;;;;;7.62;100.00;97868.94;4179627;28;20650;-50
2023/03/25 06:07:44;;;;;;;6.45;2.13;;;;;;;7.65;100.00;97875.78;4168644;28;20301;-50
2023/03/25 06:09:47;;;;;;;9.38;2.03;;;;;;;7.66;100.00;97885.59;4168837;28;20228;-49
2023/03/25 06:11:52;;;;;;;3.53;1.83;;;;;;;7.64;100.00;97871.41;4168800;28;20307;-49
2023/03/25 06:13:54;;;;;;;4.60;1.75;;;;;;;7.65;100.00;97864.91;4204021;28;20223;-49
2023/03/25 06:15:56;;;;;;;10.18;2.35;;;;;;;7.63;100.00;97869.78;4159759;28;20215;-49
2023/03/25 06:17:58;;;;;;;6.78;2.00;;;;;;;7.69;100.00;97866.06;4170646;28;20212;-49
2023/03/25 06:20:05;;;;;;;4.93;1.80;;;;;;;7.72;100.00;97868.28;4170879;28;20208;-49
2023/03/25 06:22:08;;;;;;;8.98;1.70;;;;;;;7.75;100.00;97854.19;4172989;28;20669;-50
2023/03/25 06:24:10;;;;;;;4.18;2.17;;;;;;;7.80;100.00;97862.41;4154472;28;21028;-50
2023/03/25 06:26:13;;;;;;;6.15;1.88;;;;;;;7.84;100.00;97866.31;4154300;28;20258;-49
2023/03/25 06:28:17;;;;;;;5.82;2.28;;;;;;;7.76;100.00;97856.63;4173339;28;20815;-50
2023/03/25 06:30:20;;;;;;;8.60;2.92;;;;;;;7.79;100.00;97858.03;4170600;28;20243;-50
2023/03/25 06:32:24;;;;;;;9.50;1.42;;;;;;;7.80;100.00;97862.41;4173809;28;20262;-50
2023/03/25 06:34:26;;;;;;;8.80;2.63;;;;;;;7.81;100.00;97855.91;4177925;28;20232;-49
2023/03/25 06:36:28;;;;;;;5.43;1.92;;;;;;;7.85;100.00;97854.31;4175768;28;20342;-48
2023/03/25 06:38:32;;;;;;;3.10;1.40;;;;;;;7.93;100.00;97856.63;4152830;28;20236;-49
2023/03/25 06:40:37;;;;;;;13.88;2.40;;;;;;;8.04;100.00;97858.44;4160302;28;20283;-50
2023/03/25 06:42:40;;;;;;;7.45;2.05;;;;;;;8.11;100.00;97853.63;4169821;28;20267;-50
2023/03/25 06:44:42;;;;;;;9.27;2.65;;;;;;;8.15;100.00;97857.53;4170569;28;20767;-49
2023/03/25 06:46:44;;;;;;;11.35;2.65;;;;;;;8.26;100.00;97840.25;4173954;28;20560;-49
2023/03/25 06:48:45;;;;;;;9.73;2.30;;;;;;;8.28;100.00;97846.28;4170759;28;20292;-50
2023/03/25 06:50:47;;;;;;;5.03;1.70;;;;;;;8.28;100.00;97854.47;4172114;28;20208;-50
2023/03/25 06:52:49;;;;;;;6.75;2.25;;;;;;;8.38;100.00;97851.88;4160545;28;20239;-49
2023/03/25 06:54:50;;;;;;;8.02;1.75;;;;;;;8.51;100.00;97848.78;4168713;28;20315;-51
2023/03/25 06:56:52;;;;;;;8.57;1.88;;;;;;;8.61;100.00;97843.47;4168770;28;20231;-49
2023/03/25 06:58:54;;;;;;;5.25;1.77;;;;;;;8.60;100.00;97839.06;4174764;28;20307;-49
2023/03/25 07:00:56;;;;;;;10.77;2.47;;;;;;;8.68;100.00;97846.81;4174935;28;20278;-50
2023/03/25 07:02:57;;;;;;;8.10;1.88;;;;;;;8.73;100.00;97822.31;4171747;28;20231;-49
2023/03/25 07:04:59;;;;;;;6.43;2.03;;;;;;;8.74;100.00;97830.25;4173740;28;20230;-49
2023/03/25 07:07:01;;;;;;;6.35;1.90;;;;;;;8.87;100.00;97834.47;4169881;28;20287;-49
2023/03/25 07:09:05;;;;;;;4.65;1.88;;;;;;;8.79;100.00;97824.03;4168875;28;20211;-50
2023/03/25 07:11:07;;;;;;;7.50;1.85;;;;;;;8.70;100.00;97825.56;4171375;28;20298;-49
2023/03/25 07:13:09;;;;;;;5.97;1.83;;;;;;;8.73;100.00;97825.03;4171724;28;20726;-49
2023/03/25 07:15:11;;;;;;;5.60;2.20;;;;;;;8.68;100.00;97822.28;4170318;28;20267;-49
2023/03/25 07:17:12;;;;;;;3.45;1.90;;;;;;;8.85;100.00;97834.75;4176653;28;20295;-49
2023/03/25 07:19:14;;;;;;;5.78;2.45;;;;;;;8.88;100.00;97833.41;4153898;28;20255;-50
2023/03/25 07:21:17;;;;;;;5.45;2.10;;;;;;;8.87;100.00;97837.19;4169960;28;20589;-49
2023/03/25 07:23:19;;;;;;;6.20;2.88;;;;;;;9.09;100.00;97830.63;4175916;28;20747;-50
2023/03/25 07:25:21;;;;;;;7.20;3.08;;;;;;;9.08;100.00;97833.63;4158103;28;20238;-50
2023/03/25 07:27:24;;;;;;;5.63;2.47;;;;;;;9.14;100.00;97835.34;4168402;28;20220;-51
2023/03/25 07:29:26;;;;;;;7.00;2.05;;;;;;;9.12;100.00;97821.09;4170284;28;20275;-49
2023/03/25 07:31:27;;;;;;;5.72;1.88;;;;;;;9.13;100.00;97828.19;4201638;28;20752;-48
2023/03/25 07:33:29;;;;;;;7.95;2.28;;;;;;;9.02;100.00;97812.81;4169820;28;20205;-50
2023/03/25 07:35:31;;;;;;;11.35;2.22;;;;;;;8.94;100.00;97818.75;4185765;28;20658;-49
2023/03/25 07:37:33;;;;;;;7.70;1.95;;;;;;;8.99;100.00;97826.97;4171023;28;20335;-48
2023/03/25 07:39:35;;;;;;;9.40;3.03;;;;;;;8.97;100.00;97829.13;4173535;28;20299;-48
2023/03/25 07:41:36;;;;;;;8.55;1.95;;;;;;;8.85;100.00;97823.84;4175640;28;20298;-49
2023/03/25 07:43:38;;;;;;;16.92;2.70;;;;;;;8.92;100.00;97829.06;4171932;28;20238;-49
2023/03/25 07:45:40;;;;;;;6.43;2.45;;;;;;;9.01;100.00;97822.09;4167431;28;20207;-49
2023/03/25 07:47:48;;;;;;;3.80;2.50;;;;;;;9.00;100.00;97829.44;4199746;28;20207;-50
2023/03/25 07:49:50;;;;;;;6.40;1.65;;;;;;;9.06;100.00;97830.31;4168138;28;20593;-49
2023/03/25 07:51:52;;;;;;;3.90;1.70;;;;;;;9.14;100.00;97832.59;4169483;28;20204;-49
2023/03/25 07:53:54;;;;;;;8.85;3.25;;;;;;;9.08;100.00;97825.44;4183589;28;20314;-48
2023/03/25 07:56:06;;;;;;;7.50;2.42;;;;;;;9.00;100.00;97843.09;4198082;28;20238;-49
2023/03/25 07:58:08;;;;;;;4.63;2.05;;;;;;;8.90;100.00;97844.88;4170366;28;20228;-49
2023/03/25 08:00:11;;;;;;;3.72;2.67;;;;;;;8.91;100.00;97852.81;4186397;28;20697;-49
2023/03/25 08:02:13;;;;;;;3.55;1.77;;;;;;;8.90;100.00;97842.16;4175728;28;20736;-49
2023/03/25 08:04:14;;;;;;;8.95;2.08;;;;;;;8.82;100.00;97842.63;4172354;28;20236;-50
2023/03/25 08:06:16;;;;;;;9.95;2.10;;;;;;;8.82;100.00;97850.81;4170502;28;20218;-49
2023/03/25 08:08:18;;;;;;;5.82;1.85;;;;;;;8.71;100.00;97854.47;4172663;28;20231;-49
2023/03/25 08:10:20;;;;;;;6.22;2.28;;;;;;;8.73;100.00;97855.03;4170229;28;20303;-50
2023/03/25 08:12:24;;;;;;;7.88;1.58;;;;;;;8.77;100.00;97848.00;4172090;28;20212;-49
2023/03/25 08:14:26;;;;;;;5.18;2.30;;;;;;;8.75;100.00;97847.44;4150931;28;20229;-49
2023/03/25 08:16:28;;;;;;;1.30;1.20;;;;;;;8.80;100.00;97852.94;4185201;28;20776;-50
2023/03/25 08:18:30;;;;;;;6.50;2.40;;;;;;;8.86;100.00;97852.75;4156245;28;20617;-50
2023/03/25 08:20:35;;;;;;;6.97;1.90;;;;;;;8.98;100.00;97845.25;4192308;28;20344;-51
2023/03/25 08:22:36;;;;;;;3.97;1.60;;;;;;;9.06;100.00;97846.69;4168486;28;20629;-51
2023/03/25 08:24:38;;;;;;;4.05;1.70;;;;;;;9.11;100.00;97844.03;4173172;28;20224;-49
2023/03/25 08:26:40;;;;;;;5.15;2.33;;;;;;;9.13;100.00;97844.59;4188392;28;20301;-49
2023/03/25 08:28:42;;;;;;;6.72;1.65;;;;;;;9.20;100.00;97853.38;4170689;28;20800;-49
2023/03/25 08:30:44;;;;;;;3.67;1.33;;;;;;;9.16;100.00;97841.34;4172924;28;20242;-50
2023/03/25 08:32:53;;;;;;;1.23;1.13;;;;;;;9.09;100.00;97851.66;4168443;28;20236;-49
2023/03/25 08:34:56;;;;;;;2.35;1.48;;;;;;;9.07;100.00;97845.59;4168553;28;20224;-48
2023/03/25 08:36:58;;;;;;;2.35;1.88;;;;;;;9.12;100.00;97851.13;4184595;28;20224;-49
2023/03/25 08:39:06;;;;;;;5.63;1.75;;;;;;;9.04;100.00;97854.31;4166695;28;20210;-49
2023/03/25 08:41:08;;;;;;;2.67;1.40;;;;;;;9.09;100.00;97852.47;4167108;28;20207;-50
2023/03/25 08:43:10;;;;;;;4.80;1.70;;;;;;;9.06;100.00;97860.34;4171895;28;20314;-49
2023/03/25 08:45:14;;;;;;;5.40;1.50;;;;;;;8.95;100.00;97850.41;4169082;28;20328;-50
2023/03/25 08:47:15;;;;;;;3.28;1.58;;;;;;;9.05;100.00;97861.41;4172683;28;20204;-49
2023/03/25 08:49:17;;;;;;;1.67;1.23;;;;;;;9.14;100.00;97855.25;4166011;28;20566;-49
2023/03/25 08:51:19;;;;;;;1.88;1.15;;;;;;;9.12;100.00;97843.78;4168464;28;20307;-49
2023/03/25 08:53:21;;;;;;;2.58;1.48;;;;;;;9.18;100.00;97844.63;4169952;28;20232;-49
2023/03/25 08:55:23;;;;;;;2.90;1.50;;;;;;;9.67;100.00;97854.41;4151024;28;20332;-50
2023/03/25 08:57:25;;;;;;;2.88;1.60;;;;;;;9.81;100.00;97844.69;4171082;28;20223;-48
2023/03/25 08:59:27;;;;;;;3.70;1.40;;;;;;;9.70;100.00;97832.03;4168359;28;20235;-49
2023/03/25 09:01:29;;;;;;;3.20;1.33;;;;;;;9.70;100.00;97834.75;4167884;28;20637;-49
2023/03/25 09:03:32;;;;;;;4.70;1.48;;;;;;;9.64;100.00;97838.53;4150825;28;20209;-49
2023/03/25 09:05:38;;;;;;;2.15;1.30;;;;;;;9.81;100.00;97834.56;4202208;28;20203;-49
2023/03/25 09:07:41;;;;;;;2.15;1.23;;;;;;;10.11;100.00;97828.50;4162895;28;20197;-49
2023/03/25 09:09:43;;;;;;;5.00;1.65;;;;;;;10.70;100.00;97849.06;4164952;28;20302;-50
2023/03/25 09:11:45;;;;;;;4.30;1.63;;;;;;;10.45;97.66;97835.28;4173174;28;20324;-49
2023/03/25 09:13:46;;;;;;;3.22;0.90;;;;;;;10.29;98.29;97847.22;4169087;28;20244;-50
2023/03/25 09:15:48;;;;;;;2.78;1.55;;;;;;;10.13;98.85;97840.00;4162946;28;20864;-50
2023/03/25 09:17:51;;;;;;;5.20;4.07;;;;;;;10.18;99.94;97850.97;4170900;28;20255;-50
2023/03/25 09:19:52;;;;;;;6.20;2.78;;;;;;;10.14;99.96;97834.28;4168694;28;20224;-47
2023/03/25 09:21:55;;;;;;;5.35;3.03;;;;;;;9.92;99.75;97858.16;4152871;28;20235;-50
2023/03/25 09:23:57;;;;;;;4.97;2.22;;;;;;;10.07;100.00;97857.47;4169127;28;20236;-49
2023/03/25 09:26:01;;;;;;;12.20;1.33;;;;;;;10.01;98.41;97862.03;4183122;28;20207;-48
2023/03/25 09:28:03;;;;;;;5.88;1.25;;;;;;;10.27;97.93;97865.81;4199523;28;20330;-48
2023/03/25 09:30:05;;;;;;;3.90;1.33;;;;;;;10.31;100.00;97869.66;4168632;28;20300;-50
2023/03/25 09:32:08;;;;;;;5.93;1.50;;;;;;;10.13;98.86;97870.06;4166549;28;20209;-49
2023/03/25 09:34:10;;;;;;;6.15;1.50;;;;;;;10.22;98.67;97868.50;4183728;28;20227;-49
2023/03/25 09:36:12;;;;;;;3.80;1.13;;;;;;;9.79;99.72;97863.22;4158115;28;20841;-50
2023/03/25 09:38:15;;;;;;;3.72;1.08;;;;;;;10.09;99.62;97863.50;4173414;28;20311;-50
2023/03/25 09:40:18;;;;;;;3.03;1.70;;;;;;;10.01;99.77;97851.09;4168676;28;20207;-49
2023/03/25 09:42:28;;;;;;;1.85;1.02;;;;;;;10.21;100.00;97856.75;4173098;28;20235;-50
2023/03/25 09:45:06;;;;;;;2.38;1.23;;;;;;;10.15;99.45;97859.72;4167994;28;20327;-50
2023/03/25 09:47:13;;;;;;;5.15;1.38;;;;;;;10.34;100.00;97856.28;4133160;28;20578;-49
2023/03/25 09:49:22;;;;;;;4.07;0.90;;;;;;;10.26;99.44;97847.75;4168200;28;20222;-50